createdAt,value
2018-11-25T00:01:25.761Z,11.23
2018-11-25T00:03:54.081Z,11.93
2018-11-25T00:06:22.319Z,13.80
2018-11-25T00:08:50.700Z,11.97
2018-11-25T00:11:18.973Z,11.30
2018-11-25T00:13:47.217Z,12.27
2018-11-25T00:16:15.473Z,15.60
2018-11-25T00:18:43.699Z,15.40
2018-11-25T00:21:11.948Z,14.67
2018-11-25T00:23:40.177Z,15.37
2018-11-25T00:26:08.396Z,14.30
2018-11-25T00:28:36.641Z,11.20
2018-11-25T00:31:09.675Z,12.13
2018-11-25T00:33:33.117Z,14.73
2018-11-25T00:36:01.361Z,12.97
2018-11-25T00:38:29.580Z,14.43
2018-11-25T00:40:57.823Z,14.70
2018-11-25T00:43:26.055Z,15.10
2018-11-25T00:45:54.298Z,19.00
2018-11-25T00:48:22.537Z,16.63
2018-11-25T00:50:50.769Z,17.30
2018-11-25T00:53:18.973Z,18.23
2018-11-25T00:55:47.207Z,16.90
2018-11-25T00:58:15.498Z,18.93
2018-11-25T01:00:43.728Z,17.43
2018-11-25T01:03:11.960Z,16.40
2018-11-25T01:05:41.000Z,15.00
2018-11-25T01:08:09.244Z,13.93
2018-11-25T01:10:37.502Z,18.33
2018-11-25T01:13:05.780Z,16.17
2018-11-25T01:15:34.009Z,15.47
2018-11-25T01:18:02.273Z,21.60
2018-11-25T01:20:30.497Z,18.80
2018-11-25T01:22:58.749Z,20.10
2018-11-25T01:25:27.061Z,14.83
2018-11-25T01:27:55.293Z,19.67
2018-11-25T01:30:23.549Z,18.63
2018-11-25T01:32:51.857Z,17.43
2018-11-25T01:35:20.258Z,13.60
2018-11-25T01:37:48.499Z,22.63
2018-11-25T01:40:17.652Z,18.07
2018-11-25T01:42:45.926Z,18.73
2018-11-25T01:45:15.328Z,19.97
2018-11-25T01:47:43.650Z,20.13
2018-11-25T01:50:15.573Z,18.70
2018-11-25T01:52:43.872Z,18.23
2018-11-25T01:55:13.958Z,18.80
2018-11-25T01:57:42.185Z,18.93
2018-11-25T02:00:19.228Z,21.43
2018-11-25T02:02:47.520Z,24.93
2018-11-25T02:05:15.798Z,23.10
2018-11-25T02:07:44.058Z,20.43
2018-11-25T02:10:13.466Z,18.83
2018-11-25T02:12:41.717Z,20.73
2018-11-25T02:15:11.119Z,19.00
2018-11-25T02:17:39.368Z,20.77
2018-11-25T02:20:25.262Z,25.37
2018-11-25T02:22:54.837Z,20.63
2018-11-25T02:25:23.103Z,29.77
2018-11-25T02:27:51.442Z,20.13
2018-11-25T02:30:19.697Z,15.37
2018-11-25T02:32:47.958Z,16.70
2018-11-25T02:35:16.839Z,17.17
2018-11-25T02:37:45.150Z,18.70
2018-11-25T02:40:17.512Z,16.43
2018-11-25T02:42:45.792Z,21.53
2018-11-25T02:45:18.782Z,16.50
2018-11-25T02:47:47.145Z,20.97
2018-11-25T02:50:23.436Z,18.63
2018-11-25T02:52:51.816Z,17.93
2018-11-25T02:55:22.098Z,19.47
2018-11-25T02:57:50.397Z,20.80
2018-11-25T03:00:18.660Z,18.43
2018-11-25T03:02:46.897Z,20.13
2018-11-25T03:05:15.405Z,20.93
2018-11-25T03:07:43.812Z,16.33
2018-11-25T03:10:12.273Z,21.10
2018-11-25T03:12:40.599Z,20.77
2018-11-25T03:15:13.181Z,20.13
2018-11-25T03:17:41.500Z,20.60
2018-11-25T03:20:12.821Z,18.40
2018-11-25T03:22:41.044Z,21.40
2018-11-25T03:25:10.734Z,19.00
2018-11-25T03:27:38.995Z,21.60
2018-11-25T03:30:12.218Z,21.83
2018-11-25T03:32:47.791Z,16.83
2018-11-25T03:35:16.036Z,17.13
2018-11-25T03:37:44.270Z,18.73
2018-11-25T03:40:15.333Z,17.70
2018-11-25T03:42:43.546Z,21.97
2018-11-25T03:45:14.700Z,15.37
2018-11-25T03:47:42.920Z,16.70
2018-11-25T03:50:11.964Z,18.00
2018-11-25T03:52:40.169Z,17.13
2018-11-25T03:55:12.263Z,16.37
2018-11-25T03:57:40.509Z,17.30
2018-11-25T04:00:13.662Z,17.60
2018-11-25T04:02:41.883Z,18.27
2018-11-25T04:05:11.220Z,17.43
2018-11-25T04:07:39.652Z,20.00
2018-11-25T04:10:10.493Z,17.60
2018-11-25T04:12:38.711Z,20.40
2018-11-25T04:15:09.351Z,18.70
2018-11-25T04:17:37.595Z,19.43
2018-11-25T04:20:08.658Z,14.57
2018-11-25T04:22:37.324Z,17.13
2018-11-25T04:25:07.140Z,16.00
2018-11-25T04:27:35.379Z,17.43
2018-11-25T04:30:05.079Z,15.70
2018-11-25T04:32:33.295Z,15.90
2018-11-25T04:35:01.530Z,18.80
2018-11-25T04:37:29.800Z,18.23
2018-11-25T04:39:58.020Z,15.17
2018-11-25T04:42:26.254Z,14.57
2018-11-25T04:44:54.461Z,16.60
2018-11-25T04:47:22.706Z,15.93
2018-11-25T04:49:50.937Z,13.93
2018-11-25T04:52:19.252Z,15.23
2018-11-25T04:54:47.465Z,15.00
2018-11-25T04:57:15.684Z,13.67
2018-11-25T04:59:43.940Z,15.63
2018-11-25T05:02:12.168Z,17.43
2018-11-25T05:04:40.392Z,19.13
2018-11-25T05:07:08.632Z,14.93
2018-11-25T05:09:36.841Z,19.80
2018-11-25T05:12:05.127Z,18.90
2018-11-25T05:14:33.322Z,21.13
2018-11-25T05:17:01.537Z,19.73
2018-11-25T05:19:29.751Z,23.40
2018-11-25T05:21:58.058Z,21.47
2018-11-25T05:24:26.263Z,22.33
2018-11-25T05:26:54.527Z,22.73
2018-11-25T05:29:22.760Z,21.10
2018-11-25T05:31:50.966Z,23.17
2018-11-25T05:34:19.211Z,22.87
2018-11-25T05:36:47.435Z,23.47
2018-11-25T05:39:15.668Z,26.50
2018-11-25T05:41:43.928Z,25.53
2018-11-25T05:44:12.158Z,26.57
2018-11-25T05:46:40.360Z,26.77
2018-11-25T05:49:08.577Z,28.10
2018-11-25T05:51:36.827Z,23.67
2018-11-25T05:54:05.051Z,25.23
2018-11-25T05:56:33.282Z,27.17
2018-11-25T05:59:01.504Z,27.00
2018-11-25T06:01:29.734Z,24.27
2018-11-25T06:03:57.988Z,26.83
2018-11-25T06:06:26.192Z,21.50
2018-11-25T06:08:54.450Z,26.37
2018-11-25T06:11:22.655Z,28.80
2018-11-25T06:13:50.924Z,22.30
2018-11-25T06:16:19.160Z,26.30
2018-11-25T06:18:47.408Z,25.97
2018-11-25T06:21:15.669Z,29.80
2018-11-25T06:23:43.868Z,29.67
2018-11-25T06:26:12.075Z,32.40
2018-11-25T06:28:40.276Z,30.10
2018-11-25T06:31:08.481Z,33.43
2018-11-25T06:33:36.707Z,32.67
2018-11-25T06:36:04.899Z,31.60
2018-11-25T06:38:33.127Z,31.70
2018-11-25T06:41:01.341Z,34.30
2018-11-25T06:43:29.568Z,33.73
2018-11-25T06:45:57.764Z,32.87
2018-11-25T06:48:26.033Z,37.33
2018-11-25T06:50:54.299Z,38.37
2018-11-25T06:53:22.548Z,35.87
2018-11-25T06:55:50.783Z,36.17
2018-11-25T06:58:18.984Z,38.73
2018-11-25T07:00:47.216Z,39.20
2018-11-25T07:03:15.447Z,34.97
2018-11-25T07:05:43.701Z,39.50
2018-11-25T07:08:11.916Z,34.43
2018-11-25T07:10:40.152Z,35.80
2018-11-25T07:13:08.428Z,30.10
2018-11-25T07:15:36.653Z,32.40
2018-11-25T07:18:04.933Z,33.83
2018-11-25T07:20:33.163Z,34.10
2018-11-25T07:23:01.410Z,36.00
2018-11-25T07:25:29.664Z,34.83
2018-11-25T07:27:57.904Z,33.40
2018-11-25T07:30:27.183Z,33.47
2018-11-25T07:32:55.518Z,35.07
2018-11-25T07:35:26.682Z,32.97
2018-11-25T07:37:54.953Z,35.40
2018-11-25T07:40:23.964Z,36.20
2018-11-25T07:42:52.418Z,31.10
2018-11-25T07:45:29.670Z,31.30
2018-11-25T07:47:49.931Z,32.90
2018-11-25T07:50:18.193Z,35.23
2018-11-25T07:52:47.273Z,28.70
2018-11-25T07:55:18.881Z,34.57
2018-11-25T07:57:47.862Z,37.07
2018-11-25T08:00:19.237Z,32.33
2018-11-25T08:02:47.588Z,40.30
2018-11-25T08:05:18.528Z,38.87
2018-11-25T08:07:46.804Z,41.90
2018-11-25T08:10:15.688Z,37.80
2018-11-25T08:12:44.374Z,35.00
2018-11-25T08:15:14.640Z,45.93
2018-11-25T08:17:42.913Z,36.60
2018-11-25T08:20:15.040Z,38.83
2018-11-25T08:22:43.425Z,207.63
2018-11-25T08:25:12.897Z,36.40
2018-11-25T08:27:41.141Z,40.27
2018-11-25T08:30:16.848Z,40.07
2018-11-25T08:32:45.084Z,42.27
2018-11-25T08:35:14.096Z,40.80
2018-11-25T08:37:42.291Z,39.70
2018-11-25T08:40:19.254Z,42.10
2018-11-25T08:42:47.630Z,42.60
2018-11-25T08:45:15.884Z,37.80
2018-11-25T08:47:44.573Z,35.17
2018-11-25T08:50:13.795Z,39.37
2018-11-25T08:52:42.971Z,40.50
2018-11-25T08:55:13.089Z,42.80
2018-11-25T08:57:41.706Z,42.27
2018-11-25T09:00:15.907Z,41.27
2018-11-25T09:02:44.166Z,43.37
2018-11-25T09:05:13.264Z,39.23
2018-11-25T09:07:41.575Z,41.30
2018-11-25T09:10:12.887Z,40.57
2018-11-25T09:12:41.216Z,40.17
2018-11-25T09:15:12.937Z,40.60
2018-11-25T09:17:41.764Z,44.60
2018-11-25T09:20:12.910Z,42.33
2018-11-25T09:22:41.288Z,38.50
2018-11-25T09:25:11.989Z,38.83
2018-11-25T09:27:40.220Z,42.03
2018-11-25T09:30:13.079Z,38.23
2018-11-25T09:32:41.374Z,39.27
2018-11-25T09:35:09.781Z,36.90
2018-11-25T09:37:38.138Z,39.87
2018-11-25T09:40:17.275Z,40.07
2018-11-25T09:42:45.915Z,28.73
2018-11-25T09:45:14.892Z,32.60
2018-11-25T09:47:43.461Z,39.80
2018-11-25T09:50:13.693Z,33.20
2018-11-25T09:52:41.927Z,36.60
2018-11-25T09:55:14.137Z,36.70
2018-11-25T09:57:43.561Z,37.67
2018-11-25T10:00:15.389Z,43.60
2018-11-25T10:02:43.714Z,35.13
2018-11-25T10:05:11.971Z,36.07
2018-11-25T10:07:40.220Z,40.13
2018-11-25T10:10:16.181Z,39.20
2018-11-25T10:12:44.677Z,36.70
2018-11-25T10:15:13.976Z,32.87
2018-11-25T10:17:42.260Z,35.57
2018-11-25T10:20:12.620Z,39.60
2018-11-25T10:22:40.872Z,38.20
2018-11-25T10:25:10.461Z,36.80
2018-11-25T10:27:43.636Z,42.30
2018-11-25T10:30:15.941Z,45.23
2018-11-25T10:32:44.603Z,43.87
2018-11-25T10:35:12.826Z,39.33
2018-11-25T10:37:41.102Z,45.67
2018-11-25T10:40:11.750Z,44.07
2018-11-25T10:42:40.048Z,47.07
2018-11-25T10:45:12.456Z,48.13
2018-11-25T10:47:40.855Z,44.20
2018-11-25T10:50:14.231Z,40.67
2018-11-25T10:52:42.480Z,44.30
2018-11-25T10:55:11.676Z,46.70
2018-11-25T10:57:40.637Z,53.63
2018-11-25T11:00:48.565Z,52.53
2018-11-25T11:04:25.896Z,54.77
2018-11-25T11:06:59.629Z,52.23
2018-11-25T11:09:27.970Z,56.73
2018-11-25T11:11:56.337Z,54.57
2018-11-25T11:14:25.715Z,49.67
2018-11-25T11:16:54.150Z,50.30
2018-11-25T11:19:22.334Z,51.07
2018-11-25T11:21:50.634Z,54.87
2018-11-25T11:24:18.982Z,60.17
2018-11-25T11:26:48.674Z,55.13
2018-11-25T11:29:15.608Z,54.33
2018-11-25T11:31:44.019Z,55.47
2018-11-25T11:34:12.340Z,52.27
2018-11-25T11:36:40.789Z,47.70
2018-11-25T11:39:10.039Z,54.03
2018-11-25T11:41:38.577Z,52.57
2018-11-25T11:44:06.840Z,58.17
2018-11-25T11:46:35.044Z,49.33
2018-11-25T11:49:03.289Z,49.73
2018-11-25T11:51:31.516Z,51.83
2018-11-25T11:53:59.812Z,59.87
2018-11-25T11:56:28.180Z,50.17
2018-11-25T11:58:56.386Z,50.20
2018-11-25T12:01:24.675Z,60.60
2018-11-25T12:03:52.967Z,51.33
2018-11-25T12:06:21.205Z,61.77
2018-11-25T12:08:49.440Z,49.37
2018-11-25T12:11:17.730Z,59.60
2018-11-25T12:13:45.977Z,55.50
2018-11-25T12:16:14.238Z,58.63
2018-11-25T12:18:42.486Z,54.37
2018-11-25T12:21:10.696Z,51.10
2018-11-25T12:23:39.100Z,52.53
2018-11-25T12:26:07.405Z,60.93
2018-11-25T12:28:35.629Z,63.10
2018-11-25T12:31:04.326Z,67.10
2018-11-25T12:33:32.570Z,67.53
2018-11-25T12:36:00.971Z,63.60
2018-11-25T12:38:29.187Z,49.87
2018-11-25T12:40:57.528Z,57.77
2018-11-25T12:43:25.910Z,50.40
2018-11-25T12:45:54.584Z,68.70
2018-11-25T12:48:22.979Z,49.87
2018-11-25T12:50:51.228Z,56.07
2018-11-25T12:53:19.501Z,48.53
2018-11-25T12:55:47.791Z,47.83
2018-11-25T12:58:16.024Z,63.63
2018-11-25T13:00:45.939Z,53.10
2018-11-25T13:03:14.208Z,56.17
2018-11-25T13:05:46.262Z,49.43
2018-11-25T13:08:11.828Z,58.70
2018-11-25T13:10:40.162Z,58.03
2018-11-25T13:13:09.776Z,56.10
2018-11-25T13:15:38.108Z,52.50
2018-11-25T13:18:07.517Z,49.77
2018-11-25T13:20:35.838Z,59.90
2018-11-25T13:23:04.149Z,61.13
2018-11-25T13:25:32.391Z,57.57
2018-11-25T13:28:00.665Z,56.07
2018-11-25T13:30:30.225Z,53.33
2018-11-25T13:32:59.601Z,63.43
2018-11-25T13:35:29.354Z,65.60
2018-11-25T13:37:57.597Z,62.47
2018-11-25T13:40:25.889Z,56.00
2018-11-25T13:42:54.177Z,55.40
2018-11-25T13:45:22.460Z,59.43
2018-11-25T13:47:50.718Z,54.67
2018-11-25T13:50:19.024Z,57.53
2018-11-25T13:52:47.227Z,60.00
2018-11-25T13:55:17.790Z,60.90
2018-11-25T13:57:46.016Z,63.83
2018-11-25T14:00:20.888Z,49.93
2018-11-25T14:02:49.224Z,57.00
2018-11-25T14:05:17.502Z,53.83
2018-11-25T14:07:45.724Z,58.03
2018-11-25T14:10:16.552Z,48.50
2018-11-25T14:12:44.813Z,55.27
2018-11-25T14:15:13.115Z,53.50
2018-11-25T14:17:41.341Z,51.93
2018-11-25T14:20:10.218Z,58.10
2018-11-25T14:22:38.473Z,56.77
2018-11-25T14:25:10.428Z,51.80
2018-11-25T14:27:38.727Z,53.10
2018-11-25T14:30:13.880Z,52.77
2018-11-25T14:32:42.128Z,49.53
2018-11-25T14:35:11.954Z,54.17
2018-11-25T14:37:40.237Z,51.33
2018-11-25T14:40:13.219Z,53.63
2018-11-25T14:42:41.498Z,53.30
2018-11-25T14:45:11.188Z,49.17
2018-11-25T14:47:39.495Z,47.90
2018-11-25T14:50:11.938Z,58.27
2018-11-25T14:52:40.710Z,46.90
2018-11-25T14:55:11.172Z,48.23
2018-11-25T14:57:39.820Z,46.47
2018-11-25T15:00:14.136Z,44.67
2018-11-25T15:02:42.890Z,42.43
2018-11-25T15:05:15.602Z,42.97
2018-11-25T15:07:43.880Z,47.53
2018-11-25T15:10:12.113Z,39.70
2018-11-25T15:12:40.525Z,43.57
2018-11-25T15:15:10.796Z,43.50
2018-11-25T15:17:39.347Z,45.60
2018-11-25T15:20:10.336Z,44.13
2018-11-25T15:22:38.742Z,34.30
2018-11-25T15:25:09.398Z,40.70
2018-11-25T15:27:37.672Z,40.27
2018-11-25T15:30:08.645Z,39.90
2018-11-25T15:32:36.932Z,34.43
2018-11-25T15:35:07.477Z,36.07
2018-11-25T15:37:35.792Z,35.37
2018-11-25T15:40:04.641Z,38.47
2018-11-25T15:42:32.992Z,37.53
2018-11-25T15:45:01.293Z,39.50
2018-11-25T15:47:29.822Z,36.23
2018-11-25T15:49:58.339Z,33.40
2018-11-25T15:52:26.632Z,31.90
2018-11-25T15:54:54.908Z,31.43
2018-11-25T15:57:26.917Z,36.87
2018-11-25T15:59:58.344Z,31.53
2018-11-25T16:02:26.601Z,33.93
2018-11-25T16:04:54.912Z,31.50
2018-11-25T16:07:23.267Z,31.97
2018-11-25T16:09:51.569Z,34.33
2018-11-25T16:12:20.917Z,34.27
2018-11-25T16:14:49.280Z,40.93
2018-11-25T16:17:17.615Z,29.77
2018-11-25T16:19:46.170Z,29.33
2018-11-25T16:22:14.537Z,31.53
2018-11-25T16:24:42.949Z,32.30
2018-11-25T16:27:11.296Z,30.57
2018-11-25T16:29:39.842Z,32.43
2018-11-25T16:32:08.145Z,29.40
2018-11-25T16:34:36.650Z,30.63
2018-11-25T16:37:05.019Z,32.47
2018-11-25T16:39:33.314Z,33.23
2018-11-25T16:42:01.600Z,32.60
2018-11-25T16:44:29.969Z,33.17
2018-11-25T16:46:58.316Z,25.60
2018-11-25T16:49:26.644Z,32.27
2018-11-25T16:51:54.973Z,29.87
2018-11-25T16:54:23.301Z,31.03
2018-11-25T16:56:51.630Z,26.73
2018-11-25T16:59:19.951Z,28.33
2018-11-25T17:01:48.380Z,32.27
2018-11-25T17:04:16.652Z,26.67
2018-11-25T17:06:46.599Z,31.67
2018-11-25T17:09:14.867Z,28.27
2018-11-25T17:11:43.206Z,24.67
2018-11-25T17:14:11.505Z,24.53
2018-11-25T17:16:39.907Z,27.10
2018-11-25T17:19:08.258Z,29.57
2018-11-25T17:21:36.508Z,23.80
2018-11-25T17:24:04.849Z,23.93
2018-11-25T17:26:33.110Z,25.40
2018-11-25T17:29:01.476Z,22.07
2018-11-25T17:31:29.779Z,25.63
2018-11-25T17:33:58.102Z,22.93
2018-11-25T17:36:26.584Z,21.13
2018-11-25T17:38:54.937Z,23.17
2018-11-25T17:41:23.664Z,21.37
2018-11-25T17:43:52.052Z,23.93
2018-11-25T17:46:20.433Z,23.77
2018-11-25T17:48:48.759Z,23.90
2018-11-25T17:51:17.034Z,21.87
2018-11-25T17:53:45.293Z,23.77
2018-11-25T17:56:14.091Z,23.57
2018-11-25T17:58:42.764Z,21.37
2018-11-25T18:01:11.146Z,21.53
2018-11-25T18:03:39.561Z,22.50
2018-11-25T18:06:07.946Z,20.23
2018-11-25T18:08:36.419Z,25.13
2018-11-25T18:11:04.934Z,24.77
2018-11-25T18:13:35.647Z,23.40
2018-11-25T18:16:05.490Z,22.93
2018-11-25T18:18:50.237Z,21.17
2018-11-25T18:21:22.352Z,21.00
2018-11-25T18:23:50.608Z,20.30
2018-11-25T18:26:19.008Z,18.73
2018-11-25T18:28:47.354Z,21.03
2018-11-25T18:31:15.674Z,24.87
2018-11-25T18:33:44.007Z,20.10
2018-11-25T18:36:13.663Z,21.27
2018-11-25T18:38:42.032Z,20.33
2018-11-25T18:41:10.373Z,21.00
2018-11-25T18:43:38.709Z,20.67
2018-11-25T18:46:08.158Z,18.37
2018-11-25T18:48:38.644Z,20.37
2018-11-25T18:51:07.376Z,18.17
2018-11-25T18:53:35.701Z,20.00
2018-11-25T18:56:04.130Z,19.63
2018-11-25T18:58:32.445Z,22.07
2018-11-25T19:01:06.398Z,20.80
2018-11-25T19:03:34.909Z,19.57
2018-11-25T19:06:03.440Z,19.50
2018-11-25T19:08:31.784Z,21.40
2018-11-25T19:11:00.188Z,22.83
2018-11-25T19:13:28.545Z,20.97
2018-11-25T19:15:57.436Z,17.90
2018-11-25T19:18:26.387Z,20.73
2018-11-25T19:20:56.578Z,19.40
2018-11-25T19:23:25.718Z,18.20
2018-11-25T19:25:54.138Z,20.20
2018-11-25T19:28:22.906Z,18.90
2018-11-25T19:30:51.533Z,20.43
2018-11-25T19:33:19.787Z,24.77
2018-11-25T19:35:48.068Z,20.57
2018-11-25T19:38:16.512Z,17.10
2018-11-25T19:40:45.055Z,19.73
2018-11-25T19:43:13.456Z,17.33
2018-11-25T19:45:42.277Z,18.23
2018-11-25T19:48:10.900Z,17.20
2018-11-25T19:50:39.483Z,16.00
2018-11-25T19:53:10.294Z,17.97
2018-11-25T19:55:39.217Z,20.87
2018-11-25T19:58:08.070Z,19.33
2018-11-25T20:00:36.460Z,16.27
2018-11-25T20:03:04.944Z,19.33
2018-11-25T20:05:34.216Z,21.07
2018-11-25T20:08:03.164Z,18.30
2018-11-25T20:10:32.902Z,19.70
2018-11-25T20:13:03.325Z,16.43
2018-11-25T20:15:31.960Z,18.73
2018-11-25T20:18:00.489Z,23.50
2018-11-25T20:20:28.855Z,21.87
2018-11-25T20:22:57.236Z,19.27
2018-11-25T20:25:25.664Z,20.53
2018-11-25T20:27:56.617Z,21.10
2018-11-25T20:30:28.724Z,19.30
2018-11-25T20:33:02.540Z,23.00
2018-11-25T20:35:30.977Z,24.30
2018-11-25T20:38:04.672Z,18.90
2018-11-25T20:40:33.351Z,18.87
2018-11-25T20:43:01.968Z,18.00
2018-11-25T20:45:39.155Z,17.97
2018-11-25T20:48:03.948Z,20.13
2018-11-25T20:50:32.319Z,20.37
2018-11-25T20:53:06.194Z,17.40
2018-11-25T20:55:34.508Z,20.33
2018-11-25T20:58:02.931Z,17.80
2018-11-25T21:00:31.326Z,17.30
2018-11-25T21:02:59.875Z,16.87
2018-11-25T21:05:28.360Z,19.20
2018-11-25T21:07:56.733Z,16.03
2018-11-25T21:10:26.185Z,16.37
2018-11-25T21:12:54.505Z,18.33
2018-11-25T21:15:22.772Z,21.17
2018-11-25T21:17:51.069Z,17.87
2018-11-25T21:20:22.044Z,18.53
2018-11-25T21:22:50.456Z,17.53
2018-11-25T21:25:20.747Z,18.53
2018-11-25T21:27:49.152Z,18.17
2018-11-25T21:30:20.328Z,17.57
2018-11-25T21:32:49.714Z,16.50
2018-11-25T21:35:18.727Z,14.33
2018-11-25T21:37:46.991Z,14.40
2018-11-25T21:40:21.176Z,19.67
2018-11-25T21:42:49.441Z,17.97
2018-11-25T21:45:18.592Z,14.83
2018-11-25T21:47:47.364Z,14.40
2018-11-25T21:50:19.587Z,17.67
2018-11-25T21:52:47.844Z,14.97
2018-11-25T21:55:16.976Z,14.73
2018-11-25T21:57:45.286Z,16.77
2018-11-25T22:00:16.698Z,16.80
2018-11-25T22:02:45.041Z,18.93
2018-11-25T22:05:14.431Z,16.33
2018-11-25T22:07:42.809Z,18.17
2018-11-25T22:10:12.376Z,14.63
2018-11-25T22:12:41.441Z,17.67
2018-11-25T22:15:14.777Z,17.00
2018-11-25T22:17:43.062Z,16.53
2018-11-25T22:20:12.664Z,22.57
2018-11-25T22:22:41.046Z,18.43
2018-11-25T22:25:10.424Z,16.67
2018-11-25T22:27:38.817Z,21.83
2018-11-25T22:30:26.510Z,16.87
2018-11-25T22:32:54.868Z,16.03
2018-11-25T22:35:23.607Z,15.57
2018-11-25T22:37:51.895Z,14.07
2018-11-25T22:40:20.476Z,16.90
2018-11-25T22:42:49.495Z,17.67
2018-11-25T22:45:18.812Z,13.50
2018-11-25T22:47:47.110Z,16.30
2018-11-25T22:50:18.377Z,14.57
2018-11-25T22:52:46.724Z,15.07
2018-11-25T22:55:20.219Z,17.37
2018-11-25T22:57:48.524Z,12.40
2018-11-25T23:00:19.802Z,15.80
2018-11-25T23:02:48.591Z,15.20
2018-11-25T23:06:26.965Z,15.33
2018-11-25T23:08:55.239Z,16.53
2018-11-25T23:11:23.490Z,13.33
2018-11-25T23:13:51.762Z,16.37
2018-11-25T23:16:20.048Z,15.23
2018-11-25T23:18:48.315Z,15.87
2018-11-25T23:21:16.779Z,15.30
2018-11-25T23:23:45.100Z,17.20
2018-11-25T23:26:13.472Z,14.53
2018-11-25T23:28:42.054Z,14.67
2018-11-25T23:31:10.300Z,16.73
2018-11-25T23:33:38.547Z,17.53
2018-11-25T23:36:06.934Z,15.33
2018-11-25T23:38:35.163Z,14.53
2018-11-25T23:41:03.487Z,16.53
2018-11-25T23:43:31.751Z,16.90
2018-11-25T23:46:00.077Z,17.70
2018-11-25T23:48:28.685Z,18.00
2018-11-25T23:50:56.943Z,15.47
2018-11-25T23:53:25.216Z,18.77
2018-11-25T23:55:53.787Z,16.43
2018-11-25T23:58:22.042Z,17.73
